Terminal Aerodrome Forecast
Issued by NWS

Home | Current Version | Previous Version | Text Only | Print | Product List | Glossary On
Versions: 1 2 3 4 5 6 7 8 9 10 11 12 13 14 15 16
000
FTUS41 KBOX 301742
TAFFMH
TAF
KFMH 301742Z 3018/3118 10007KT P6SM FEW010 SCT250
     FM302000 16009KT P6SM SCT015 SCT250
     FM302300 20007KT P6SM SCT015 BKN250
     FM310600 21005KT P6SM OVC015
     FM311000 VRB03KT 5SM BR OVC025
     FM311300 13005KT P6SM OVC025
     FM311500 12006KT P6SM VCSH OVC015=

USA.gov is the U.S. government's official web portal to all federal, state and local government web resources and services.